createdAt,value
2022-08-21T00:00:29.053Z,47.61
2022-08-21T00:02:58.335Z,47.11
2022-08-21T00:05:29.003Z,47.22
2022-08-21T00:07:57.145Z,47.00
2022-08-21T00:10:24.959Z,47.11
2022-08-21T00:12:52.746Z,47.05
2022-08-21T00:15:23.789Z,46.96
2022-08-21T00:17:51.216Z,47.40
2022-08-21T00:20:19.100Z,47.70
2022-08-21T00:22:48.052Z,47.07
2022-08-21T00:25:16.449Z,46.96
2022-08-21T00:27:48.831Z,46.81
2022-08-21T00:30:23.092Z,47.38
2022-08-21T00:32:51.573Z,47.08
2022-08-21T00:35:21.481Z,46.72
2022-08-21T00:37:50.782Z,46.93
2022-08-21T00:40:21.497Z,47.42
2022-08-21T00:42:53.462Z,46.99
2022-08-21T00:45:22.618Z,47.28
2022-08-21T00:47:50.746Z,47.43
2022-08-21T00:50:22.107Z,47.01
2022-08-21T00:52:52.298Z,46.64
2022-08-21T00:55:21.825Z,46.42
2022-08-21T00:57:53.173Z,46.75
2022-08-21T01:00:21.895Z,47.04
2022-08-21T01:02:49.354Z,46.30
2022-08-21T01:05:17.237Z,46.66
2022-08-21T01:07:44.889Z,46.66
2022-08-21T01:10:21.605Z,46.38
2022-08-21T01:12:52.415Z,46.46
2022-08-21T01:15:21.686Z,46.33
2022-08-21T01:17:50.416Z,47.57
2022-08-21T01:20:18.426Z,47.97
2022-08-21T01:22:47.373Z,48.31
2022-08-21T01:25:17.049Z,48.93
2022-08-21T01:27:44.084Z,48.70
2022-08-21T01:30:14.230Z,48.07
2022-08-21T01:32:41.706Z,48.21
2022-08-21T01:35:09.974Z,48.94
2022-08-21T01:37:37.476Z,49.02
2022-08-21T01:40:08.066Z,49.21
2022-08-21T01:42:36.301Z,49.19
2022-08-21T01:45:04.183Z,48.96
2022-08-21T01:47:31.625Z,49.00
2022-08-21T01:49:59.107Z,48.86
2022-08-21T01:52:26.804Z,48.89
2022-08-21T01:54:55.104Z,49.06
2022-08-21T01:57:26.198Z,48.86
2022-08-21T01:59:54.393Z,48.93
2022-08-21T02:02:21.828Z,49.14
2022-08-21T02:04:49.262Z,49.07
2022-08-21T02:07:16.966Z,47.91
2022-08-21T02:09:44.362Z,47.91
2022-08-21T02:12:12.409Z,48.92
2022-08-21T02:14:41.281Z,48.24
2022-08-21T02:17:09.675Z,48.37
2022-08-21T02:19:40.674Z,48.64
2022-08-21T02:22:09.342Z,48.09
2022-08-21T02:24:37.040Z,48.03
2022-08-21T02:27:26.675Z,48.64
2022-08-21T02:29:57.666Z,47.98
2022-08-21T02:32:25.598Z,48.00
2022-08-21T02:34:53.015Z,47.67
2022-08-21T02:37:20.584Z,48.34
2022-08-21T02:39:48.104Z,47.50
2022-08-21T02:42:15.613Z,48.04
2022-08-21T02:44:43.026Z,47.94
2022-08-21T02:47:11.899Z,48.34
2022-08-21T02:49:39.297Z,47.91
2022-08-21T02:52:06.840Z,47.38
2022-08-21T02:54:34.340Z,47.92
2022-08-21T02:57:02.039Z,47.59
2022-08-21T02:59:29.482Z,46.46
2022-08-21T03:01:57.041Z,46.75
2022-08-21T03:04:25.926Z,45.62
2022-08-21T03:06:53.398Z,45.76
2022-08-21T03:09:20.821Z,45.70
2022-08-21T03:11:48.184Z,45.25
2022-08-21T03:14:15.621Z,45.18
2022-08-21T03:16:43.001Z,44.27
2022-08-21T03:19:10.543Z,44.65
2022-08-21T03:21:39.417Z,43.77
2022-08-21T03:24:07.058Z,43.66
2022-08-21T03:26:34.530Z,42.53
2022-08-21T03:29:02.020Z,42.22
2022-08-21T03:31:29.655Z,42.08
2022-08-21T03:33:57.117Z,41.58
2022-08-21T03:36:24.594Z,41.82
2022-08-21T03:38:53.467Z,42.27
2022-08-21T03:41:21.021Z,41.60
2022-08-21T03:43:48.416Z,42.02
2022-08-21T03:46:15.959Z,41.30
2022-08-21T03:48:43.418Z,41.48
2022-08-21T03:51:10.948Z,41.24
2022-08-21T03:53:38.456Z,41.53
2022-08-21T03:56:08.023Z,40.68
2022-08-21T03:58:35.440Z,41.40
2022-08-21T04:01:04.835Z,41.67
2022-08-21T04:03:32.782Z,41.45
2022-08-21T04:06:00.200Z,41.07
2022-08-21T04:08:27.642Z,40.89
2022-08-21T04:10:58.095Z,40.74
2022-08-21T04:13:27.188Z,40.78
2022-08-21T04:15:54.644Z,40.66
2022-08-21T04:18:22.066Z,40.67
2022-08-21T04:20:52.455Z,40.76
2022-08-21T04:23:24.343Z,40.21
2022-08-21T04:25:53.292Z,40.67
2022-08-21T04:28:20.736Z,40.29
2022-08-21T04:30:50.038Z,40.02
2022-08-21T04:33:17.694Z,40.67
2022-08-21T04:35:45.228Z,40.11
2022-08-21T04:38:12.685Z,40.47
2022-08-21T04:40:40.181Z,40.11
2022-08-21T04:43:10.185Z,40.55
2022-08-21T04:45:39.814Z,39.63
2022-08-21T04:48:14.115Z,39.23
2022-08-21T04:50:46.327Z,39.10
2022-08-21T04:53:17.146Z,38.17
2022-08-21T04:55:45.114Z,38.73
2022-08-21T04:58:15.937Z,38.08
2022-08-21T05:00:43.402Z,38.17
2022-08-21T05:03:13.474Z,37.00
2022-08-21T05:05:41.766Z,36.68
2022-08-21T05:08:13.683Z,36.95
2022-08-21T05:10:41.621Z,36.21
2022-08-21T05:13:09.090Z,35.60
2022-08-21T05:15:36.524Z,35.22
2022-08-21T05:18:04.020Z,34.39
2022-08-21T05:20:33.166Z,34.58
2022-08-21T05:23:00.787Z,34.77
2022-08-21T05:25:28.691Z,33.45
2022-08-21T05:27:58.217Z,34.38
2022-08-21T05:30:28.779Z,34.03
2022-08-21T05:32:58.244Z,33.30
2022-08-21T05:35:26.331Z,32.98
2022-08-21T05:37:55.577Z,32.75
2022-08-21T05:40:23.527Z,33.61
2022-08-21T05:42:54.318Z,32.90
2022-08-21T05:45:41.369Z,33.71
2022-08-21T05:48:10.877Z,32.98
2022-08-21T05:50:38.611Z,33.00
2022-08-21T05:53:08.485Z,33.41
2022-08-21T05:55:39.323Z,33.19
2022-08-21T05:58:10.284Z,32.71
2022-08-21T06:00:37.910Z,33.06
2022-08-21T06:03:05.328Z,33.18
2022-08-21T06:05:37.191Z,33.23
2022-08-21T06:08:05.582Z,32.67
2022-08-21T06:10:34.467Z,32.65
2022-08-21T06:13:01.951Z,32.95
2022-08-21T06:15:29.375Z,32.35
2022-08-21T06:17:56.792Z,32.14
2022-08-21T06:20:24.549Z,32.32
2022-08-21T06:22:52.355Z,32.90
2022-08-21T06:25:19.991Z,33.07
2022-08-21T06:27:48.890Z,32.39
2022-08-21T06:30:16.380Z,33.06
2022-08-21T06:32:43.846Z,32.87
2022-08-21T06:35:11.625Z,32.90
2022-08-21T06:37:39.048Z,34.09
2022-08-21T06:40:12.551Z,32.59
2022-08-21T06:42:41.334Z,32.84
2022-08-21T06:45:11.951Z,32.97
2022-08-21T06:47:39.410Z,32.76
2022-08-21T06:50:08.383Z,33.36
2022-08-21T06:52:36.254Z,33.45
2022-08-21T06:55:05.536Z,33.31
2022-08-21T06:57:33.048Z,33.66
2022-08-21T07:00:00.539Z,33.80
2022-08-21T07:02:29.406Z,34.11
2022-08-21T07:04:56.828Z,33.90
2022-08-21T07:07:24.243Z,33.01
2022-08-21T07:09:51.677Z,33.49
2022-08-21T07:12:19.561Z,33.73
2022-08-21T07:14:47.050Z,33.58
2022-08-21T07:17:14.474Z,33.33
2022-08-21T07:19:43.293Z,33.97
2022-08-21T07:22:10.828Z,33.83
2022-08-21T07:24:38.269Z,33.80
2022-08-21T07:27:09.781Z,33.72
2022-08-21T07:29:37.592Z,34.38
2022-08-21T07:32:05.525Z,33.72
2022-08-21T07:34:33.156Z,34.62
2022-08-21T07:37:06.062Z,34.74
2022-08-21T07:39:37.575Z,34.80
2022-08-21T07:42:08.308Z,34.26
2022-08-21T07:44:36.013Z,34.93
2022-08-21T07:47:03.898Z,34.92
2022-08-21T07:49:31.319Z,35.47
2022-08-21T07:51:59.060Z,34.66
2022-08-21T07:54:27.996Z,35.34
2022-08-21T07:57:01.784Z,35.81
2022-08-21T07:59:29.507Z,35.59
2022-08-21T08:01:56.983Z,35.57
2022-08-21T08:04:26.617Z,36.60
2022-08-21T08:06:54.365Z,35.10
2022-08-21T08:09:21.792Z,35.47
2022-08-21T08:11:50.691Z,35.83
2022-08-21T08:14:18.095Z,35.90
2022-08-21T08:16:45.583Z,37.75
2022-08-21T08:19:13.004Z,37.45
2022-08-21T08:21:40.418Z,37.56
2022-08-21T08:24:18.916Z,37.33
2022-08-21T08:26:54.011Z,37.33
2022-08-21T08:29:23.311Z,37.03
2022-08-21T08:31:50.885Z,36.06
2022-08-21T08:34:25.234Z,36.93
2022-08-21T08:36:53.362Z,37.48
2022-08-21T08:39:26.915Z,38.28
2022-08-21T08:42:03.845Z,38.71
2022-08-21T08:44:58.583Z,38.55
2022-08-21T08:47:28.581Z,38.29
2022-08-21T08:50:02.341Z,37.77
2022-08-21T08:52:31.499Z,38.17
2022-08-21T08:55:05.832Z,38.85
2022-08-21T08:57:34.932Z,39.46
2022-08-21T09:00:08.864Z,38.56
2022-08-21T09:02:37.151Z,38.70
2022-08-21T09:05:05.187Z,38.20
2022-08-21T09:07:41.264Z,38.47
2022-08-21T09:10:18.375Z,38.43
2022-08-21T09:12:57.498Z,39.90
2022-08-21T09:15:32.306Z,39.23
2022-08-21T09:18:29.465Z,39.24
2022-08-21T09:21:09.123Z,39.65
2022-08-21T09:23:41.244Z,39.88
2022-08-21T09:26:14.095Z,39.86
2022-08-21T09:28:42.139Z,40.01
2022-08-21T09:31:22.643Z,38.91
2022-08-21T09:33:50.053Z,39.82
2022-08-21T09:36:26.662Z,40.06
2022-08-21T09:38:55.716Z,40.66
2022-08-21T09:41:30.150Z,40.57
2022-08-21T09:43:57.805Z,40.21
2022-08-21T09:46:28.153Z,40.41
2022-08-21T09:48:58.542Z,40.85
2022-08-21T09:51:29.385Z,40.91
2022-08-21T09:54:01.465Z,40.80
2022-08-21T09:56:33.257Z,40.01
2022-08-21T09:59:01.762Z,40.11
2022-08-21T10:01:30.701Z,39.34
2022-08-21T10:04:05.445Z,40.24
2022-08-21T10:06:32.849Z,40.48
2022-08-21T10:09:07.881Z,40.43
2022-08-21T10:11:35.806Z,39.73
2022-08-21T10:14:14.191Z,39.76
2022-08-21T10:16:53.369Z,40.03
2022-08-21T10:19:27.427Z,39.56
2022-08-21T10:22:03.611Z,39.70
2022-08-21T10:24:34.504Z,39.78
2022-08-21T10:27:12.683Z,39.53
2022-08-21T10:29:48.523Z,40.24
2022-08-21T10:32:29.307Z,40.75
2022-08-21T10:35:08.010Z,40.96
2022-08-21T10:37:46.154Z,40.39
2022-08-21T10:40:23.037Z,41.37
2022-08-21T10:43:03.006Z,40.00
2022-08-21T10:45:45.361Z,40.69
2022-08-21T10:48:23.982Z,40.07
2022-08-21T10:50:55.947Z,40.91
2022-08-21T10:53:38.202Z,40.49
2022-08-21T10:56:14.248Z,40.79
2022-08-21T10:58:46.866Z,40.31
2022-08-21T11:01:19.621Z,41.49
2022-08-21T11:03:55.624Z,41.09
2022-08-21T11:06:26.759Z,41.47
2022-08-21T11:08:57.824Z,40.33
2022-08-21T11:11:35.727Z,40.60
2022-08-21T11:14:10.803Z,40.51
2022-08-21T11:16:41.505Z,40.90
2022-08-21T11:19:16.953Z,40.86
2022-08-21T11:21:48.387Z,41.13
2022-08-21T11:24:30.159Z,40.38
2022-08-21T11:27:04.351Z,41.20
2022-08-21T11:29:35.157Z,41.13
2022-08-21T11:32:25.982Z,41.38
2022-08-21T11:35:06.100Z,41.56
2022-08-21T11:37:50.091Z,41.46
2022-08-21T11:40:33.017Z,40.52
2022-08-21T11:43:09.902Z,40.50
2022-08-21T11:45:44.823Z,40.45
2022-08-21T11:48:23.008Z,41.00
2022-08-21T11:50:53.926Z,41.03
2022-08-21T11:53:27.512Z,40.64
2022-08-21T11:56:03.342Z,40.88
2022-08-21T11:58:37.469Z,41.34
2022-08-21T12:01:10.417Z,40.63
2022-08-21T12:03:42.241Z,41.10
2022-08-21T12:06:13.621Z,41.67
2022-08-21T12:08:42.907Z,40.87
2022-08-21T12:11:24.729Z,41.82
2022-08-21T12:14:01.620Z,40.57
2022-08-21T12:16:34.056Z,40.67
2022-08-21T12:19:06.590Z,40.91
2022-08-21T12:21:50.190Z,41.57
2022-08-21T12:24:20.594Z,41.76
2022-08-21T12:26:53.209Z,41.35
2022-08-21T12:29:27.743Z,40.98
2022-08-21T12:31:59.322Z,40.92
2022-08-21T12:34:36.945Z,40.96
2022-08-21T12:37:15.903Z,41.07
2022-08-21T12:39:48.708Z,40.83
2022-08-21T12:42:20.323Z,40.96
2022-08-21T12:44:52.123Z,40.39
2022-08-21T12:47:28.607Z,41.36
2022-08-21T12:50:02.701Z,40.77
2022-08-21T12:52:39.137Z,40.41
2022-08-21T12:55:08.938Z,40.53
2022-08-21T12:57:38.056Z,39.90
2022-08-21T13:00:09.160Z,40.09
2022-08-21T13:02:39.247Z,40.61
2022-08-21T13:05:09.146Z,40.24
2022-08-21T13:07:38.658Z,39.28
2022-08-21T13:10:15.394Z,39.93
2022-08-21T13:12:43.653Z,39.92
2022-08-21T13:15:12.326Z,40.06
2022-08-21T13:17:43.542Z,40.18
2022-08-21T13:20:22.924Z,40.20
2022-08-21T13:22:52.212Z,39.95
2022-08-21T13:25:22.491Z,39.43
2022-08-21T13:28:00.363Z,39.57
2022-08-21T13:30:27.810Z,38.84
2022-08-21T13:32:59.267Z,39.41
2022-08-21T13:35:31.345Z,39.37
2022-08-21T13:38:01.014Z,39.38
2022-08-21T13:40:30.003Z,39.24
2022-08-21T13:42:58.871Z,39.70
2022-08-21T13:45:30.821Z,39.14
2022-08-21T13:47:59.179Z,39.74
2022-08-21T13:50:30.759Z,39.56
2022-08-21T13:53:02.908Z,39.28
2022-08-21T13:55:39.385Z,39.85
2022-08-21T13:58:08.469Z,39.53
2022-08-21T14:00:44.538Z,39.58
2022-08-21T14:03:23.949Z,39.81
2022-08-21T14:05:51.394Z,39.48
2022-08-21T14:08:30.465Z,39.15
2022-08-21T14:10:59.134Z,39.07
2022-08-21T14:13:34.900Z,39.16
2022-08-21T14:16:13.623Z,39.08
2022-08-21T14:18:54.221Z,38.82
2022-08-21T14:21:31.206Z,39.22
2022-08-21T14:24:09.586Z,39.21
2022-08-21T14:26:43.428Z,39.09
2022-08-21T14:29:12.808Z,39.10
2022-08-21T14:31:43.178Z,38.88
2022-08-21T14:34:19.343Z,39.58
2022-08-21T14:36:48.698Z,39.28
2022-08-21T14:39:17.626Z,39.51
2022-08-21T14:41:45.818Z,38.99
2022-08-21T14:44:13.876Z,39.58
2022-08-21T14:46:51.582Z,39.47
2022-08-21T14:49:26.591Z,39.53
2022-08-21T14:51:54.653Z,39.63
2022-08-21T14:54:30.661Z,38.88
2022-08-21T14:57:01.672Z,39.06
2022-08-21T14:59:29.290Z,39.14
2022-08-21T15:01:56.734Z,39.85
2022-08-21T15:04:24.330Z,39.54
2022-08-21T15:06:51.780Z,40.03
2022-08-21T15:09:19.187Z,39.62
2022-08-21T15:11:48.136Z,39.89
2022-08-21T15:14:20.982Z,39.93
2022-08-21T15:16:49.255Z,40.09
2022-08-21T15:19:16.902Z,40.03
2022-08-21T15:21:44.337Z,40.00
2022-08-21T15:24:11.762Z,39.82
2022-08-21T15:26:39.297Z,40.24
2022-08-21T15:29:09.793Z,40.43
2022-08-21T15:31:50.129Z,40.69
2022-08-21T15:34:17.555Z,39.97
2022-08-21T15:36:45.143Z,40.58
2022-08-21T15:39:12.589Z,40.67
2022-08-21T15:41:40.036Z,40.38
2022-08-21T15:44:11.664Z,40.35
2022-08-21T15:46:39.515Z,41.15
2022-08-21T15:49:07.245Z,40.64
2022-08-21T15:51:35.174Z,41.22
2022-08-21T15:54:11.153Z,41.67
2022-08-21T15:56:41.487Z,41.37
2022-08-21T15:59:16.121Z,41.13
2022-08-21T16:01:44.650Z,41.03
2022-08-21T16:04:19.572Z,41.84
2022-08-21T16:06:53.238Z,42.05
2022-08-21T16:09:23.381Z,42.13
2022-08-21T16:11:51.524Z,41.43
2022-08-21T16:14:20.461Z,41.42
2022-08-21T16:16:47.993Z,41.70
2022-08-21T16:19:15.539Z,42.48
2022-08-21T16:21:43.021Z,41.73
2022-08-21T16:24:10.458Z,41.88
2022-08-21T16:26:37.967Z,41.94
2022-08-21T16:29:07.021Z,42.95
2022-08-21T16:31:36.221Z,42.66
2022-08-21T16:34:03.913Z,43.25
2022-08-21T16:36:31.431Z,43.32
2022-08-21T16:39:00.998Z,43.31
2022-08-21T16:41:32.176Z,42.98
2022-08-21T16:43:59.884Z,42.90
2022-08-21T16:46:28.149Z,43.16
2022-08-21T16:48:57.007Z,42.21
2022-08-21T16:51:24.462Z,42.57
2022-08-21T16:53:52.252Z,43.33
2022-08-21T16:56:19.789Z,43.09
2022-08-21T16:58:49.123Z,43.00
2022-08-21T17:01:19.967Z,42.72
2022-08-21T17:03:49.455Z,42.76
2022-08-21T17:06:19.717Z,43.55
2022-08-21T17:08:47.629Z,42.87
2022-08-21T17:11:37.323Z,42.77
2022-08-21T17:14:09.108Z,43.24
2022-08-21T17:16:37.536Z,43.43
2022-08-21T17:19:05.078Z,43.67
2022-08-21T17:21:34.230Z,44.00
2022-08-21T17:24:01.675Z,43.83
2022-08-21T17:26:29.134Z,43.58
2022-08-21T17:28:56.724Z,43.21
2022-08-21T17:31:24.251Z,44.29
2022-08-21T17:33:53.949Z,42.85
2022-08-21T17:36:26.308Z,43.76
2022-08-21T17:38:55.466Z,43.44
2022-08-21T17:41:23.648Z,44.33
2022-08-21T17:43:52.149Z,44.19
2022-08-21T17:46:22.224Z,43.56
2022-08-21T17:48:49.679Z,43.91
2022-08-21T17:51:17.328Z,43.87
2022-08-21T17:53:45.418Z,43.38
2022-08-21T17:56:15.941Z,43.93
2022-08-21T17:58:47.690Z,44.38
2022-08-21T18:01:15.358Z,43.49
2022-08-21T18:03:42.917Z,44.18
2022-08-21T18:06:14.352Z,43.59
2022-08-21T18:08:44.384Z,44.32
2022-08-21T18:11:17.987Z,44.19
2022-08-21T18:13:54.270Z,44.85
2022-08-21T18:16:22.316Z,43.86
2022-08-21T18:18:49.921Z,44.00
2022-08-21T18:21:17.413Z,45.00
2022-08-21T18:23:45.191Z,44.58
2022-08-21T18:26:15.521Z,44.50
2022-08-21T18:28:43.709Z,45.37
2022-08-21T18:31:13.111Z,45.03
2022-08-21T18:33:52.893Z,44.40
2022-08-21T18:36:26.466Z,44.70
2022-08-21T18:38:55.086Z,44.97
2022-08-21T18:41:22.875Z,44.48
2022-08-21T18:43:50.582Z,44.26
2022-08-21T18:46:19.465Z,45.48
2022-08-21T18:48:47.105Z,44.85
2022-08-21T18:51:14.575Z,45.21
2022-08-21T18:53:42.004Z,44.92
2022-08-21T18:56:15.568Z,45.46
2022-08-21T18:58:44.030Z,44.75
2022-08-21T19:01:11.893Z,45.56
2022-08-21T19:03:40.810Z,45.11
2022-08-21T19:06:09.730Z,45.59
2022-08-21T19:08:39.299Z,45.05
2022-08-21T19:11:07.409Z,45.83
2022-08-21T19:13:36.101Z,46.14
2022-08-21T19:16:04.647Z,45.71
2022-08-21T19:18:37.200Z,45.74
2022-08-21T19:21:06.582Z,45.63
2022-08-21T19:23:35.565Z,45.57
2022-08-21T19:26:06.224Z,45.58
2022-08-21T19:28:38.441Z,45.37
2022-08-21T19:31:11.553Z,45.95
2022-08-21T19:33:44.254Z,46.06
2022-08-21T19:36:13.814Z,45.64
2022-08-21T19:38:41.596Z,45.87
2022-08-21T19:41:13.089Z,46.00
2022-08-21T19:43:44.218Z,46.23
2022-08-21T19:46:15.782Z,46.15
2022-08-21T19:48:46.645Z,46.45
2022-08-21T19:51:15.779Z,47.14
2022-08-21T19:53:43.220Z,46.19
2022-08-21T19:56:15.284Z,46.34
2022-08-21T19:58:43.344Z,46.88
2022-08-21T20:01:16.578Z,46.78
2022-08-21T20:03:53.912Z,47.44
2022-08-21T20:06:26.435Z,46.67
2022-08-21T20:08:55.255Z,47.27
2022-08-21T20:11:27.490Z,47.07
2022-08-21T20:13:55.424Z,46.91
2022-08-21T20:16:22.896Z,47.19
2022-08-21T20:18:50.368Z,46.76
2022-08-21T20:21:18.966Z,46.72
2022-08-21T20:23:49.147Z,47.39
2022-08-21T20:26:35.813Z,47.20
2022-08-21T20:29:04.694Z,47.50
2022-08-21T20:31:34.580Z,47.62
2022-08-21T20:34:03.999Z,47.22
2022-08-21T20:36:32.058Z,46.91
2022-08-21T20:39:01.022Z,47.75
2022-08-21T20:41:30.913Z,47.65
2022-08-21T20:44:16.910Z,47.77
2022-08-21T20:46:44.816Z,47.45
2022-08-21T20:49:17.530Z,47.94
2022-08-21T20:51:49.439Z,47.04
2022-08-21T20:54:23.129Z,47.88
2022-08-21T20:56:56.269Z,48.21
2022-08-21T20:59:41.282Z,47.80
2022-08-21T21:02:33.842Z,47.50
2022-08-21T21:07:59.913Z,47.62
2022-08-21T21:10:35.998Z,46.78
2022-08-21T21:13:09.224Z,45.01
2022-08-21T21:15:38.424Z,45.47
2022-08-21T21:18:14.166Z,45.15
2022-08-21T21:20:49.981Z,45.05
2022-08-21T21:23:23.577Z,44.84
2022-08-21T21:25:59.936Z,45.01
2022-08-21T21:28:38.554Z,44.73
2022-08-21T21:31:05.981Z,44.96
2022-08-21T21:33:33.393Z,44.00
2022-08-21T21:36:12.538Z,44.61
2022-08-21T21:38:56.628Z,44.22
2022-08-21T21:41:35.181Z,44.21
2022-08-21T21:44:13.878Z,44.72
2022-08-21T21:46:50.946Z,44.00
2022-08-21T21:49:49.656Z,44.66
2022-08-21T21:52:42.388Z,44.19
2022-08-21T21:55:24.213Z,44.66
2022-08-21T21:58:16.735Z,44.79
2022-08-21T22:00:52.310Z,44.27
2022-08-21T22:03:25.884Z,44.61
2022-08-21T22:06:00.244Z,44.79
2022-08-21T22:08:37.648Z,44.20
2022-08-21T22:11:24.459Z,44.28
2022-08-21T22:14:04.995Z,44.21
2022-08-21T22:16:34.552Z,44.36
2022-08-21T22:19:13.705Z,44.76
2022-08-21T22:21:49.139Z,44.04
2022-08-21T22:24:21.900Z,44.40
2022-08-21T22:26:53.486Z,44.17
2022-08-21T22:29:23.377Z,44.63
2022-08-21T22:32:05.780Z,44.80
2022-08-21T22:34:34.501Z,44.97
2022-08-21T22:37:05.313Z,44.12
2022-08-21T22:39:39.982Z,44.57
2022-08-21T22:42:10.785Z,44.74
2022-08-21T22:44:51.760Z,44.61
2022-08-21T22:47:22.169Z,44.88
2022-08-21T22:49:51.102Z,44.03
2022-08-21T22:52:23.290Z,44.83
2022-08-21T22:54:54.383Z,44.37
2022-08-21T22:57:26.627Z,44.18
2022-08-21T23:00:00.744Z,44.81
2022-08-21T23:02:36.553Z,45.03
2022-08-21T23:05:16.439Z,44.14
2022-08-21T23:07:49.904Z,44.87
2022-08-21T23:10:26.475Z,44.47
2022-08-21T23:13:01.165Z,44.69
2022-08-21T23:15:45.578Z,44.14
2022-08-21T23:18:17.904Z,44.58
2022-08-21T23:20:56.132Z,44.20
2022-08-21T23:23:25.498Z,44.88
2022-08-21T23:26:17.334Z,44.70
2022-08-21T23:29:07.782Z,44.94
2022-08-21T23:31:50.246Z,44.09
2022-08-21T23:34:26.791Z,44.61
2022-08-21T23:37:14.086Z,44.73
2022-08-21T23:39:52.915Z,44.63
2022-08-21T23:42:45.602Z,44.19
2022-08-21T23:45:24.344Z,44.98
2022-08-21T23:48:19.877Z,44.04
2022-08-21T23:51:00.669Z,44.88
2022-08-21T23:53:38.458Z,44.72
2022-08-21T23:56:17.555Z,44.99
2022-08-21T23:58:54.021Z,44.60
